sensor_id;sensor_type;location;lat;lon;timestamp;pressure;altitude;pressure_sealevel;temperature;humidity
18504;BME280;9381;54.244;10.074;2022-12-18T00:00:40;102340.28;;;-4.05;100.00
18504;BME280;9381;54.244;10.074;2022-12-18T00:05:50;102352.63;;;-4.05;100.00
18504;BME280;9381;54.244;10.074;2022-12-18T00:10:51;102362.50;;;-4.09;100.00
18504;BME280;9381;54.244;10.074;2022-12-18T00:15:51;102375.72;;;-4.09;100.00
18504;BME280;9381;54.244;10.074;2022-12-18T00:20:51;102370.84;;;-4.16;100.00
18504;BME280;9381;54.244;10.074;2022-12-18T00:25:52;102363.75;;;-4.16;100.00
18504;BME280;9381;54.244;10.074;2022-12-18T00:31:20;102371.28;;;-4.08;100.00
18504;BME280;9381;54.244;10.074;2022-12-18T00:36:23;102347.41;;;-4.07;100.00
18504;BME280;9381;54.244;10.074;2022-12-18T00:41:24;102340.25;;;-4.20;100.00
18504;BME280;9381;54.244;10.074;2022-12-18T00:46:44;102351.06;;;-4.25;100.00
18504;BME280;9381;54.244;10.074;2022-12-18T00:51:45;102348.28;;;-4.22;100.00
18504;BME280;9381;54.244;10.074;2022-12-18T00:56:45;102356.00;;;-4.19;100.00
18504;BME280;9381;54.244;10.074;2022-12-18T01:01:46;102350.91;;;-4.37;100.00
18504;BME280;9381;54.244;10.074;2022-12-18T01:06:48;102357.47;;;-4.29;100.00
18504;BME280;9381;54.244;10.074;2022-12-18T01:11:48;102385.41;;;-4.25;100.00
18504;BME280;9381;54.244;10.074;2022-12-18T01:16:48;102369.41;;;-4.22;100.00
18504;BME280;9381;54.244;10.074;2022-12-18T01:21:48;102378.91;;;-4.35;100.00
18504;BME280;9381;54.244;10.074;2022-12-18T01:26:49;102375.50;;;-4.37;100.00
18504;BME280;9381;54.244;10.074;2022-12-18T01:31:49;102389.41;;;-4.33;100.00
18504;BME280;9381;54.244;10.074;2022-12-18T01:36:49;102384.13;;;-4.33;100.00
18504;BME280;9381;54.244;10.074;2022-12-18T01:41:52;102402.16;;;-4.41;100.00
18504;BME280;9381;54.244;10.074;2022-12-18T01:47:04;102409.78;;;-4.52;100.00
18504;BME280;9381;54.244;10.074;2022-12-18T01:52:05;102400.53;;;-4.44;100.00
18504;BME280;9381;54.244;10.074;2022-12-18T01:57:05;102398.50;;;-4.39;100.00
18504;BME280;9381;54.244;10.074;2022-12-18T02:02:06;102408.91;;;-4.36;100.00
18504;BME280;9381;54.244;10.074;2022-12-18T02:07:32;102408.13;;;-4.38;100.00
18504;BME280;9381;54.244;10.074;2022-12-18T02:12:55;102420.13;;;-4.48;100.00
18504;BME280;9381;54.244;10.074;2022-12-18T02:18:02;102416.84;;;-4.53;100.00
18504;BME280;9381;54.244;10.074;2022-12-18T02:23:42;102417.19;;;-4.59;100.00
18504;BME280;9381;54.244;10.074;2022-12-18T02:28:53;102408.63;;;-4.64;100.00
18504;BME280;9381;54.244;10.074;2022-12-18T02:33:56;102418.19;;;-4.61;100.00
18504;BME280;9381;54.244;10.074;2022-12-18T02:38:59;102415.50;;;-4.60;100.00
18504;BME280;9381;54.244;10.074;2022-12-18T02:44:06;102424.19;;;-4.58;100.00
18504;BME280;9381;54.244;10.074;2022-12-18T03:05:27;102414.78;;;-4.63;100.00
18504;BME280;9381;54.244;10.074;2022-12-18T03:10:32;102415.34;;;-4.74;100.00
18504;BME280;9381;54.244;10.074;2022-12-18T03:15:37;102398.53;;;-4.56;100.00
18504;BME280;9381;54.244;10.074;2022-12-18T03:20:42;102406.59;;;-4.42;100.00
18504;BME280;9381;54.244;10.074;2022-12-18T03:25:44;102413.13;;;-4.49;100.00
18504;BME280;9381;54.244;10.074;2022-12-18T03:30:49;102427.28;;;-4.50;100.00
18504;BME280;9381;54.244;10.074;2022-12-18T03:35:52;102423.53;;;-4.46;100.00
18504;BME280;9381;54.244;10.074;2022-12-18T03:41:00;102431.00;;;-4.54;100.00
18504;BME280;9381;54.244;10.074;2022-12-18T03:46:08;102424.47;;;-4.64;100.00
18504;BME280;9381;54.244;10.074;2022-12-18T03:51:18;102422.19;;;-4.70;100.00
18504;BME280;9381;54.244;10.074;2022-12-18T03:56:24;102419.19;;;-4.64;100.00
18504;BME280;9381;54.244;10.074;2022-12-18T04:01:31;102413.84;;;-4.62;100.00
18504;BME280;9381;54.244;10.074;2022-12-18T04:06:32;102397.56;;;-4.70;100.00
18504;BME280;9381;54.244;10.074;2022-12-18T04:11:33;102398.09;;;-4.64;100.00
18504;BME280;9381;54.244;10.074;2022-12-18T04:16:34;102394.69;;;-4.66;100.00
18504;BME280;9381;54.244;10.074;2022-12-18T04:21:34;102396.84;;;-4.57;100.00
18504;BME280;9381;54.244;10.074;2022-12-18T04:26:34;102400.59;;;-4.61;100.00
18504;BME280;9381;54.244;10.074;2022-12-18T04:31:35;102424.00;;;-4.55;100.00
18504;BME280;9381;54.244;10.074;2022-12-18T04:36:36;102425.72;;;-4.54;100.00
18504;BME280;9381;54.244;10.074;2022-12-18T04:41:36;102433.09;;;-4.60;100.00
18504;BME280;9381;54.244;10.074;2022-12-18T04:46:37;102439.56;;;-4.66;100.00
18504;BME280;9381;54.244;10.074;2022-12-18T04:51:37;102444.84;;;-4.66;100.00
18504;BME280;9381;54.244;10.074;2022-12-18T04:56:37;102454.63;;;-4.68;100.00
18504;BME280;9381;54.244;10.074;2022-12-18T05:01:38;102440.78;;;-4.73;100.00
18504;BME280;9381;54.244;10.074;2022-12-18T05:06:38;102434.09;;;-4.80;100.00
18504;BME280;9381;54.244;10.074;2022-12-18T05:11:38;102453.75;;;-4.85;100.00
18504;BME280;9381;54.244;10.074;2022-12-18T05:16:38;102455.00;;;-4.92;100.00
18504;BME280;9381;54.244;10.074;2022-12-18T05:21:39;102455.16;;;-4.95;100.00
18504;BME280;9381;54.244;10.074;2022-12-18T05:26:39;102461.88;;;-5.07;100.00
18504;BME280;9381;54.244;10.074;2022-12-18T05:31:40;102456.75;;;-5.10;100.00
18504;BME280;9381;54.244;10.074;2022-12-18T05:36:40;102456.59;;;-5.07;100.00
18504;BME280;9381;54.244;10.074;2022-12-18T05:41:41;102460.09;;;-5.06;100.00
18504;BME280;9381;54.244;10.074;2022-12-18T05:46:41;102471.31;;;-5.01;100.00
18504;BME280;9381;54.244;10.074;2022-12-18T05:51:41;102468.03;;;-5.06;100.00
18504;BME280;9381;54.244;10.074;2022-12-18T05:56:41;102469.72;;;-5.05;100.00
18504;BME280;9381;54.244;10.074;2022-12-18T06:01:42;102470.34;;;-5.17;100.00
18504;BME280;9381;54.244;10.074;2022-12-18T06:06:43;102480.03;;;-5.18;100.00
18504;BME280;9381;54.244;10.074;2022-12-18T06:11:43;102475.78;;;-5.20;100.00
18504;BME280;9381;54.244;10.074;2022-12-18T06:16:43;102487.22;;;-5.21;100.00
18504;BME280;9381;54.244;10.074;2022-12-18T06:21:44;102487.75;;;-5.32;100.00
18504;BME280;9381;54.244;10.074;2022-12-18T06:26:44;102487.66;;;-5.47;100.00
18504;BME280;9381;54.244;10.074;2022-12-18T06:31:44;102489.34;;;-5.65;99.73
18504;BME280;9381;54.244;10.074;2022-12-18T06:36:45;102493.69;;;-5.64;100.00
18504;BME280;9381;54.244;10.074;2022-12-18T06:41:45;102498.34;;;-5.68;100.00
18504;BME280;9381;54.244;10.074;2022-12-18T06:46:45;102515.84;;;-5.68;99.79
18504;BME280;9381;54.244;10.074;2022-12-18T06:51:46;102505.59;;;-5.73;99.46
18504;BME280;9381;54.244;10.074;2022-12-18T06:56:46;102510.06;;;-5.75;99.50
18504;BME280;9381;54.244;10.074;2022-12-18T07:01:46;102508.31;;;-5.75;99.66
18504;BME280;9381;54.244;10.074;2022-12-18T07:06:47;102511.72;;;-5.91;100.00
18504;BME280;9381;54.244;10.074;2022-12-18T07:11:47;102529.94;;;-5.87;100.00
18504;BME280;9381;54.244;10.074;2022-12-18T07:16:47;102529.13;;;-5.87;99.65
18504;BME280;9381;54.244;10.074;2022-12-18T07:21:49;102543.00;;;-5.84;99.76
18504;BME280;9381;54.244;10.074;2022-12-18T07:26:50;102549.53;;;-5.92;99.72
18504;BME280;9381;54.244;10.074;2022-12-18T07:31:50;102557.44;;;-5.92;99.20
18504;BME280;9381;54.244;10.074;2022-12-18T07:36:50;102562.97;;;-5.98;99.90
18504;BME280;9381;54.244;10.074;2022-12-18T07:41:51;102579.06;;;-6.04;99.57
18504;BME280;9381;54.244;10.074;2022-12-18T07:47:10;102590.53;;;-6.05;99.03
18504;BME280;9381;54.244;10.074;2022-12-18T07:52:10;102593.16;;;-6.05;99.14
18504;BME280;9381;54.244;10.074;2022-12-18T07:57:12;102584.31;;;-6.04;98.34
18504;BME280;9381;54.244;10.074;2022-12-18T08:02:12;102578.06;;;-6.02;98.10
18504;BME280;9381;54.244;10.074;2022-12-18T08:07:13;102571.69;;;-5.96;97.97
18504;BME280;9381;54.244;10.074;2022-12-18T08:12:13;102585.50;;;-5.91;98.47
18504;BME280;9381;54.244;10.074;2022-12-18T08:17:13;102571.56;;;-5.75;98.69
18504;BME280;9381;54.244;10.074;2022-12-18T08:22:14;102573.84;;;-5.68;98.16
18504;BME280;9381;54.244;10.074;2022-12-18T08:27:14;102549.03;;;-5.64;98.39
18504;BME280;9381;54.244;10.074;2022-12-18T08:32:15;102558.75;;;-5.64;98.02
18504;BME280;9381;54.244;10.074;2022-12-18T08:37:15;102557.59;;;-5.59;98.05
18504;BME280;9381;54.244;10.074;2022-12-18T08:42:15;102564.22;;;-5.50;97.97
18504;BME280;9381;54.244;10.074;2022-12-18T08:47:34;102564.88;;;-5.45;98.40
18504;BME280;9381;54.244;10.074;2022-12-18T08:52:35;102559.19;;;-5.36;98.16
18504;BME280;9381;54.244;10.074;2022-12-18T08:57:35;102561.59;;;-5.32;98.35
18504;BME280;9381;54.244;10.074;2022-12-18T09:02:36;102564.31;;;-5.15;98.16
18504;BME280;9381;54.244;10.074;2022-12-18T09:07:36;102571.41;;;-5.17;97.77
18504;BME280;9381;54.244;10.074;2022-12-18T09:12:36;102584.31;;;-5.11;97.76
18504;BME280;9381;54.244;10.074;2022-12-18T09:17:37;102577.28;;;-5.10;96.88
18504;BME280;9381;54.244;10.074;2022-12-18T09:22:37;102579.69;;;-5.06;97.00
18504;BME280;9381;54.244;10.074;2022-12-18T09:27:38;102582.06;;;-4.83;96.99
18504;BME280;9381;54.244;10.074;2022-12-18T09:32:39;102576.78;;;-4.83;96.97
18504;BME280;9381;54.244;10.074;2022-12-18T09:37:39;102584.19;;;-4.72;97.43
18504;BME280;9381;54.244;10.074;2022-12-18T09:42:46;102582.88;;;-4.64;97.09
18504;BME280;9381;54.244;10.074;2022-12-18T09:47:51;102572.97;;;-4.59;96.76
18504;BME280;9381;54.244;10.074;2022-12-18T09:52:55;102580.56;;;-4.53;97.14
18504;BME280;9381;54.244;10.074;2022-12-18T09:58:18;102576.63;;;-4.44;97.06
18504;BME280;9381;54.244;10.074;2022-12-18T10:03:21;102578.94;;;-4.21;97.09
18504;BME280;9381;54.244;10.074;2022-12-18T10:08:37;102575.81;;;-3.95;95.70
18504;BME280;9381;54.244;10.074;2022-12-18T10:13:57;102581.28;;;-3.66;95.58
18504;BME280;9381;54.244;10.074;2022-12-18T10:24:19;102568.72;;;-3.30;94.25
18504;BME280;9381;54.244;10.074;2022-12-18T10:29:22;102573.28;;;-2.56;93.58
18504;BME280;9381;54.244;10.074;2022-12-18T10:34:24;102587.41;;;-1.83;89.39
18504;BME280;9381;54.244;10.074;2022-12-18T10:39:25;102594.72;;;-1.30;87.09
18504;BME280;9381;54.244;10.074;2022-12-18T10:44:28;102584.34;;;-0.66;86.56
18504;BME280;9381;54.244;10.074;2022-12-18T10:49:31;102590.88;;;-0.19;82.31
18504;BME280;9381;54.244;10.074;2022-12-18T10:54:34;102579.84;;;0.49;79.59
18504;BME280;9381;54.244;10.074;2022-12-18T10:59:50;102578.56;;;0.67;79.32
18504;BME280;9381;54.244;10.074;2022-12-18T11:04:51;102577.47;;;0.82;77.74
18504;BME280;9381;54.244;10.074;2022-12-18T11:10:00;102586.28;;;0.59;77.73
18504;BME280;9381;54.244;10.074;2022-12-18T11:15:01;102601.81;;;0.15;78.77
18504;BME280;9381;54.244;10.074;2022-12-18T11:20:07;102580.38;;;1.15;77.93
18504;BME280;9381;54.244;10.074;2022-12-18T11:25:19;102558.25;;;1.26;74.41
18504;BME280;9381;54.244;10.074;2022-12-18T11:30:27;102562.97;;;0.86;75.06
18504;BME280;9381;54.244;10.074;2022-12-18T11:40:40;102565.69;;;-0.52;79.98
18504;BME280;9381;54.244;10.074;2022-12-18T11:45:54;102572.41;;;-0.73;81.62
18504;BME280;9381;54.244;10.074;2022-12-18T11:50:59;102570.38;;;-0.96;82.96
18504;BME280;9381;54.244;10.074;2022-12-18T11:56:25;102573.41;;;-0.88;84.42
18504;BME280;9381;54.244;10.074;2022-12-18T12:01:48;102546.16;;;-1.04;85.28
18504;BME280;9381;54.244;10.074;2022-12-18T12:22:39;102511.50;;;-1.29;88.77
18504;BME280;9381;54.244;10.074;2022-12-18T12:38:22;102492.00;;;-1.70;90.93
18504;BME280;9381;54.244;10.074;2022-12-18T12:43:25;102484.25;;;-1.59;90.78
18504;BME280;9381;54.244;10.074;2022-12-18T12:48:38;102474.47;;;-1.59;91.31
18504;BME280;9381;54.244;10.074;2022-12-18T12:53:41;102464.06;;;-1.62;91.09
18504;BME280;9381;54.244;10.074;2022-12-18T13:20:43;102437.38;;;-1.87;93.83
18504;BME280;9381;54.244;10.074;2022-12-18T13:25:44;102449.44;;;-1.95;93.80
18504;BME280;9381;54.244;10.074;2022-12-18T13:30:55;102452.25;;;-1.98;93.54
18504;BME280;9381;54.244;10.074;2022-12-18T13:36:04;102452.81;;;-2.21;94.52
18504;BME280;9381;54.244;10.074;2022-12-18T13:46:29;102431.03;;;-2.26;93.35
18504;BME280;9381;54.244;10.074;2022-12-18T13:51:43;102437.38;;;-2.43;94.11
18504;BME280;9381;54.244;10.074;2022-12-18T13:56:45;102437.44;;;-2.58;93.85
18504;BME280;9381;54.244;10.074;2022-12-18T14:01:50;102446.88;;;-2.68;94.92
18504;BME280;9381;54.244;10.074;2022-12-18T14:06:55;102458.19;;;-2.80;94.34
18504;BME280;9381;54.244;10.074;2022-12-18T14:11:56;102469.69;;;-2.95;94.95
18504;BME280;9381;54.244;10.074;2022-12-18T14:17:17;102463.56;;;-3.11;95.31
18504;BME280;9381;54.244;10.074;2022-12-18T14:22:21;102438.13;;;-3.13;95.16
18504;BME280;9381;54.244;10.074;2022-12-18T14:27:24;102438.31;;;-3.32;95.21
18504;BME280;9381;54.244;10.074;2022-12-18T14:32:24;102448.03;;;-3.32;94.98
18504;BME280;9381;54.244;10.074;2022-12-18T14:37:26;102454.81;;;-3.58;95.32
18504;BME280;9381;54.244;10.074;2022-12-18T14:42:28;102450.47;;;-3.59;95.82
18504;BME280;9381;54.244;10.074;2022-12-18T14:47:28;102440.47;;;-3.69;96.41
18504;BME280;9381;54.244;10.074;2022-12-18T14:52:31;102445.31;;;-3.77;96.45
18504;BME280;9381;54.244;10.074;2022-12-18T14:57:36;102433.41;;;-3.69;95.86
18504;BME280;9381;54.244;10.074;2022-12-18T15:02:37;102429.38;;;-3.76;96.20
18504;BME280;9381;54.244;10.074;2022-12-18T15:07:46;102420.75;;;-3.95;96.86
18504;BME280;9381;54.244;10.074;2022-12-18T15:12:48;102417.59;;;-3.86;96.81
18504;BME280;9381;54.244;10.074;2022-12-18T15:17:56;102405.03;;;-3.98;97.16
18504;BME280;9381;54.244;10.074;2022-12-18T15:22:57;102408.63;;;-3.99;98.33
18504;BME280;9381;54.244;10.074;2022-12-18T15:27:57;102394.56;;;-3.99;98.37
18504;BME280;9381;54.244;10.074;2022-12-18T15:33:24;102399.41;;;-4.07;98.85
18504;BME280;9381;54.244;10.074;2022-12-18T15:38:25;102398.56;;;-4.08;99.40
18504;BME280;9381;54.244;10.074;2022-12-18T15:43:26;102387.66;;;-4.02;98.80
18504;BME280;9381;54.244;10.074;2022-12-18T15:48:44;102378.78;;;-4.16;99.30
18504;BME280;9381;54.244;10.074;2022-12-18T15:53:45;102371.78;;;-4.17;99.67
18504;BME280;9381;54.244;10.074;2022-12-18T15:58:46;102366.91;;;-4.25;100.00
18504;BME280;9381;54.244;10.074;2022-12-18T16:03:46;102380.56;;;-4.17;99.99
18504;BME280;9381;54.244;10.074;2022-12-18T16:08:47;102367.50;;;-4.35;100.00
18504;BME280;9381;54.244;10.074;2022-12-18T16:13:48;102370.22;;;-4.37;100.00
18504;BME280;9381;54.244;10.074;2022-12-18T16:18:48;102351.22;;;-4.28;100.00
18504;BME280;9381;54.244;10.074;2022-12-18T16:23:49;102339.13;;;-4.32;100.00
18504;BME280;9381;54.244;10.074;2022-12-18T16:28:49;102342.28;;;-4.25;100.00
18504;BME280;9381;54.244;10.074;2022-12-18T16:34:09;102332.41;;;-4.06;100.00
18504;BME280;9381;54.244;10.074;2022-12-18T16:39:09;102349.22;;;-4.07;100.00
18504;BME280;9381;54.244;10.074;2022-12-18T16:44:11;102342.22;;;-4.08;100.00
18504;BME280;9381;54.244;10.074;2022-12-18T16:49:12;102330.66;;;-4.06;100.00
18504;BME280;9381;54.244;10.074;2022-12-18T16:54:13;102318.44;;;-3.93;100.00
18504;BME280;9381;54.244;10.074;2022-12-18T16:59:13;102316.56;;;-3.91;100.00
18504;BME280;9381;54.244;10.074;2022-12-18T17:04:14;102306.22;;;-3.80;100.00
18504;BME280;9381;54.244;10.074;2022-12-18T17:09:17;102302.81;;;-3.82;100.00
18504;BME280;9381;54.244;10.074;2022-12-18T17:14:25;102287.06;;;-3.83;100.00
18504;BME280;9381;54.244;10.074;2022-12-18T17:19:26;102267.25;;;-3.76;100.00
18504;BME280;9381;54.244;10.074;2022-12-18T17:24:27;102258.56;;;-3.78;100.00
18504;BME280;9381;54.244;10.074;2022-12-18T17:29:27;102250.72;;;-3.80;100.00
18504;BME280;9381;54.244;10.074;2022-12-18T17:34:28;102250.59;;;-3.92;100.00
18504;BME280;9381;54.244;10.074;2022-12-18T17:39:28;102242.44;;;-3.74;100.00
18504;BME280;9381;54.244;10.074;2022-12-18T17:44:29;102245.06;;;-3.74;100.00
18504;BME280;9381;54.244;10.074;2022-12-18T17:49:30;102248.47;;;-3.72;100.00
18504;BME280;9381;54.244;10.074;2022-12-18T17:54:30;102246.03;;;-3.61;100.00
18504;BME280;9381;54.244;10.074;2022-12-18T17:59:32;102234.56;;;-3.60;100.00
18504;BME280;9381;54.244;10.074;2022-12-18T18:04:32;102211.72;;;-3.47;100.00
18504;BME280;9381;54.244;10.074;2022-12-18T18:09:32;102200.66;;;-3.53;100.00
18504;BME280;9381;54.244;10.074;2022-12-18T18:14:33;102192.81;;;-3.55;100.00
18504;BME280;9381;54.244;10.074;2022-12-18T18:19:33;102185.06;;;-3.44;100.00
18504;BME280;9381;54.244;10.074;2022-12-18T18:24:33;102181.03;;;-3.35;100.00
18504;BME280;9381;54.244;10.074;2022-12-18T18:29:34;102172.91;;;-3.32;100.00
18504;BME280;9381;54.244;10.074;2022-12-18T18:34:34;102161.50;;;-3.33;100.00
18504;BME280;9381;54.244;10.074;2022-12-18T18:39:35;102151.06;;;-3.36;100.00
18504;BME280;9381;54.244;10.074;2022-12-18T18:44:35;102137.09;;;-3.10;100.00
18504;BME280;9381;54.244;10.074;2022-12-18T18:49:36;102133.50;;;-3.09;100.00
18504;BME280;9381;54.244;10.074;2022-12-18T18:54:36;102122.72;;;-3.06;100.00
18504;BME280;9381;54.244;10.074;2022-12-18T18:59:36;102133.50;;;-3.09;100.00
18504;BME280;9381;54.244;10.074;2022-12-18T19:04:37;102122.91;;;-2.95;100.00
18504;BME280;9381;54.244;10.074;2022-12-18T19:09:38;102106.25;;;-2.97;100.00
18504;BME280;9381;54.244;10.074;2022-12-18T19:14:38;102101.53;;;-2.92;100.00
18504;BME280;9381;54.244;10.074;2022-12-18T19:19:39;102100.84;;;-2.82;100.00
18504;BME280;9381;54.244;10.074;2022-12-18T19:24:39;102072.25;;;-2.77;100.00
18504;BME280;9381;54.244;10.074;2022-12-18T19:29:40;102059.47;;;-2.70;100.00
18504;BME280;9381;54.244;10.074;2022-12-18T19:34:40;102053.63;;;-2.75;100.00
18504;BME280;9381;54.244;10.074;2022-12-18T19:39:41;102052.59;;;-2.73;100.00
18504;BME280;9381;54.244;10.074;2022-12-18T19:44:41;102034.59;;;-2.68;100.00
18504;BME280;9381;54.244;10.074;2022-12-18T19:49:41;102018.41;;;-2.63;100.00
18504;BME280;9381;54.244;10.074;2022-12-18T19:54:42;102003.72;;;-2.55;100.00
18504;BME280;9381;54.244;10.074;2022-12-18T19:59:42;102009.84;;;-2.54;100.00
18504;BME280;9381;54.244;10.074;2022-12-18T20:04:42;101998.84;;;-2.48;100.00
18504;BME280;9381;54.244;10.074;2022-12-18T20:09:43;102000.44;;;-2.46;100.00
18504;BME280;9381;54.244;10.074;2022-12-18T20:14:43;101987.63;;;-2.39;100.00
18504;BME280;9381;54.244;10.074;2022-12-18T20:19:43;101987.72;;;-2.41;99.99
18504;BME280;9381;54.244;10.074;2022-12-18T20:24:44;101995.69;;;-2.28;99.86
18504;BME280;9381;54.244;10.074;2022-12-18T20:29:44;101991.75;;;-2.35;99.24
18504;BME280;9381;54.244;10.074;2022-12-18T20:34:44;101971.75;;;-2.27;99.21
18504;BME280;9381;54.244;10.074;2022-12-18T20:39:45;101963.16;;;-2.30;99.27
18504;BME280;9381;54.244;10.074;2022-12-18T20:44:45;101960.69;;;-2.21;98.37
18504;BME280;9381;54.244;10.074;2022-12-18T20:49:46;101941.66;;;-2.13;98.48
18504;BME280;9381;54.244;10.074;2022-12-18T20:54:46;101936.13;;;-2.10;97.58
18504;BME280;9381;54.244;10.074;2022-12-18T20:59:46;101918.94;;;-2.05;97.89
18504;BME280;9381;54.244;10.074;2022-12-18T21:04:47;101910.56;;;-2.11;97.81
18504;BME280;9381;54.244;10.074;2022-12-18T21:09:48;101910.66;;;-2.00;97.54
18504;BME280;9381;54.244;10.074;2022-12-18T21:14:48;101892.53;;;-2.06;97.73
18504;BME280;9381;54.244;10.074;2022-12-18T21:19:48;101889.03;;;-1.94;97.63
18504;BME280;9381;54.244;10.074;2022-12-18T21:24:49;101886.91;;;-2.02;97.05
18504;BME280;9381;54.244;10.074;2022-12-18T21:29:49;101874.59;;;-2.03;97.35
18504;BME280;9381;54.244;10.074;2022-12-18T21:34:49;101881.28;;;-1.97;97.11
18504;BME280;9381;54.244;10.074;2022-12-18T21:39:50;101870.16;;;-2.02;97.59
18504;BME280;9381;54.244;10.074;2022-12-18T21:44:50;101872.09;;;-2.04;98.06
18504;BME280;9381;54.244;10.074;2022-12-18T21:49:51;101879.72;;;-2.00;97.70
18504;BME280;9381;54.244;10.074;2022-12-18T21:54:51;101882.88;;;-1.95;98.27
18504;BME280;9381;54.244;10.074;2022-12-18T21:59:52;101902.28;;;-1.94;98.04
18504;BME280;9381;54.244;10.074;2022-12-18T22:04:52;101881.91;;;-1.94;97.59
18504;BME280;9381;54.244;10.074;2022-12-18T22:09:52;101899.31;;;-1.90;97.23
18504;BME280;9381;54.244;10.074;2022-12-18T22:14:53;101899.63;;;-1.82;97.17
18504;BME280;9381;54.244;10.074;2022-12-18T22:19:53;101883.56;;;-1.80;97.69
18504;BME280;9381;54.244;10.074;2022-12-18T22:24:53;101875.94;;;-1.85;97.72
18504;BME280;9381;54.244;10.074;2022-12-18T22:29:54;101871.50;;;-1.84;97.28
18504;BME280;9381;54.244;10.074;2022-12-18T22:35:04;101868.13;;;-1.86;97.13
18504;BME280;9381;54.244;10.074;2022-12-18T22:40:05;101858.97;;;-1.82;96.40
18504;BME280;9381;54.244;10.074;2022-12-18T22:45:06;101849.34;;;-1.83;96.68
18504;BME280;9381;54.244;10.074;2022-12-18T22:50:07;101844.25;;;-1.86;96.95
18504;BME280;9381;54.244;10.074;2022-12-18T22:55:07;101818.41;;;-1.95;97.68
18504;BME280;9381;54.244;10.074;2022-12-18T23:00:08;101815.19;;;-1.88;97.28
18504;BME280;9381;54.244;10.074;2022-12-18T23:05:09;101808.97;;;-1.99;97.35
18504;BME280;9381;54.244;10.074;2022-12-18T23:10:09;101789.97;;;-1.93;96.80
18504;BME280;9381;54.244;10.074;2022-12-18T23:15:09;101778.41;;;-1.92;97.38
18504;BME280;9381;54.244;10.074;2022-12-18T23:20:10;101778.22;;;-2.02;96.57
18504;BME280;9381;54.244;10.074;2022-12-18T23:25:10;101776.00;;;-1.95;96.56
18504;BME280;9381;54.244;10.074;2022-12-18T23:30:11;101767.75;;;-2.03;96.97
18504;BME280;9381;54.244;10.074;2022-12-18T23:35:11;101755.22;;;-2.01;96.91
18504;BME280;9381;54.244;10.074;2022-12-18T23:40:12;101755.94;;;-1.99;96.85
18504;BME280;9381;54.244;10.074;2022-12-18T23:45:12;101745.25;;;-1.98;96.54
18504;BME280;9381;54.244;10.074;2022-12-18T23:50:12;101745.56;;;-2.02;97.51
18504;BME280;9381;54.244;10.074;2022-12-18T23:55:12;101739.31;;;-2.01;97.15
